createdAt,value
2018-09-03T00:00:56.378Z,0.00
2018-09-03T00:01:56.631Z,0.00
2018-09-03T00:02:56.615Z,0.00
2018-09-03T00:03:57.094Z,0.00
2018-09-03T00:04:56.328Z,0.00
2018-09-03T00:05:57.212Z,0.00
2018-09-03T00:06:56.330Z,0.00
2018-09-03T00:07:56.956Z,0.00
2018-09-03T00:08:56.275Z,0.00
2018-09-03T00:09:56.268Z,0.00
2018-09-03T00:10:56.415Z,0.00
2018-09-03T00:11:56.184Z,0.00
2018-09-03T00:12:56.176Z,0.00
2018-09-03T00:13:56.141Z,0.00
2018-09-03T00:14:56.240Z,0.00
2018-09-03T00:15:56.116Z,0.00
2018-09-03T00:16:56.122Z,0.00
2018-09-03T00:17:56.107Z,0.00
2018-09-03T00:18:56.205Z,0.00
2018-09-03T00:19:56.110Z,0.00
2018-09-03T00:20:56.167Z,0.00
2018-09-03T00:21:56.134Z,0.00
2018-09-03T00:22:56.313Z,0.00
2018-09-03T00:23:56.148Z,0.00
2018-09-03T00:24:56.311Z,0.00
2018-09-03T00:25:56.353Z,0.00
2018-09-03T00:26:56.094Z,0.00
2018-09-03T00:27:56.004Z,0.00
2018-09-03T00:28:56.277Z,0.00
2018-09-03T00:29:56.087Z,0.00
2018-09-03T00:30:55.977Z,0.00
2018-09-03T00:31:56.048Z,0.00
2018-09-03T00:32:56.035Z,0.00
2018-09-03T00:33:56.236Z,0.00
2018-09-03T00:34:56.195Z,0.00
2018-09-03T00:35:56.540Z,0.00
2018-09-03T00:36:55.986Z,0.00
2018-09-03T00:37:55.997Z,0.00
2018-09-03T00:38:55.874Z,0.00
2018-09-03T00:39:55.956Z,0.00
2018-09-03T00:40:55.961Z,0.00
2018-09-03T00:41:55.943Z,0.00
2018-09-03T00:42:56.114Z,0.00
2018-09-03T00:43:55.818Z,0.00
2018-09-03T00:44:55.856Z,0.00
2018-09-03T00:45:55.894Z,0.00
2018-09-03T00:46:55.844Z,0.00
2018-09-03T00:47:56.155Z,0.00
2018-09-03T00:48:55.892Z,0.00
2018-09-03T00:49:55.837Z,0.00
2018-09-03T00:50:56.127Z,0.00
2018-09-03T00:51:55.844Z,0.00
2018-09-03T00:52:55.825Z,0.00
2018-09-03T00:53:56.103Z,0.00
2018-09-03T00:54:55.812Z,0.00
2018-09-03T00:55:55.698Z,0.00
2018-09-03T00:56:55.681Z,0.00
2018-09-03T00:57:55.779Z,0.00
2018-09-03T00:58:55.675Z,0.00
2018-09-03T00:59:55.684Z,0.00
2018-09-03T01:00:56.290Z,0.00
2018-09-03T01:01:55.921Z,0.00
2018-09-03T01:02:55.619Z,0.00
2018-09-03T01:03:55.701Z,0.00
2018-09-03T01:04:55.732Z,0.00
2018-09-03T01:05:55.950Z,0.00
2018-09-03T01:06:55.673Z,0.00
2018-09-03T01:07:55.568Z,0.00
2018-09-03T01:08:55.657Z,0.00
2018-09-03T01:09:55.572Z,0.00
2018-09-03T01:10:55.643Z,0.00
2018-09-03T01:11:55.609Z,0.00
2018-09-03T01:12:55.613Z,0.00
2018-09-03T01:13:55.597Z,0.00
2018-09-03T01:14:55.522Z,0.00
2018-09-03T01:15:55.495Z,0.00
2018-09-03T01:16:55.480Z,0.00
2018-09-03T01:17:55.550Z,0.00
2018-09-03T01:18:55.850Z,0.00
2018-09-03T01:19:55.728Z,0.00
2018-09-03T01:20:55.536Z,0.00
2018-09-03T01:21:55.419Z,0.00
2018-09-03T01:22:55.767Z,0.00
2018-09-03T01:23:55.493Z,0.00
2018-09-03T01:24:55.777Z,0.00
2018-09-03T01:25:55.698Z,0.00
2018-09-03T01:26:55.459Z,0.00
2018-09-03T01:27:55.473Z,0.00
2018-09-03T01:28:55.613Z,0.00
2018-09-03T01:29:55.702Z,0.00
2018-09-03T01:30:55.591Z,0.00
2018-09-03T01:31:55.681Z,0.00
2018-09-03T01:32:55.390Z,0.00
2018-09-03T01:33:55.877Z,0.00
2018-09-03T01:34:55.358Z,0.00
2018-09-03T01:35:55.551Z,0.00
2018-09-03T01:36:55.601Z,0.00
2018-09-03T01:37:55.257Z,0.00
2018-09-03T01:38:55.597Z,0.00
2018-09-03T01:39:55.506Z,0.00
2018-09-03T01:40:55.215Z,0.00
2018-09-03T01:41:55.344Z,0.00
2018-09-03T01:42:55.569Z,0.00
2018-09-03T01:43:55.309Z,0.00
2018-09-03T01:44:55.186Z,0.00
2018-09-03T01:45:55.310Z,0.00
2018-09-03T01:46:55.149Z,0.00
2018-09-03T01:47:55.143Z,0.00
2018-09-03T01:48:55.490Z,0.00
2018-09-03T01:49:55.117Z,0.00
2018-09-03T01:50:55.395Z,0.00
2018-09-03T01:51:55.109Z,0.00
2018-09-03T01:52:55.098Z,0.00
2018-09-03T01:53:55.447Z,0.00
2018-09-03T01:54:55.073Z,0.00
2018-09-03T01:55:55.419Z,0.00
2018-09-03T01:56:55.097Z,0.00
2018-09-03T01:57:55.109Z,0.00
2018-09-03T01:58:55.097Z,0.00
2018-09-03T01:59:55.009Z,0.00
2018-09-03T02:00:55.135Z,0.00
2018-09-03T02:01:55.336Z,0.00
2018-09-03T02:02:55.165Z,0.00
2018-09-03T02:03:54.967Z,0.00
2018-09-03T02:04:55.074Z,0.00
2018-09-03T02:05:55.706Z,0.00
2018-09-03T02:06:55.316Z,0.00
2018-09-03T02:07:55.196Z,0.00
2018-09-03T02:08:55.010Z,0.00
2018-09-03T02:09:54.905Z,0.00
2018-09-03T02:10:54.939Z,0.00
2018-09-03T02:11:54.999Z,0.00
2018-09-03T02:12:54.871Z,0.00
2018-09-03T02:13:54.977Z,0.00
2018-09-03T02:14:54.950Z,0.00
2018-09-03T02:15:54.865Z,0.00
2018-09-03T02:16:54.838Z,0.00
2018-09-03T02:17:54.822Z,0.00
2018-09-03T02:18:55.448Z,0.00
2018-09-03T02:19:54.851Z,0.00
2018-09-03T02:20:54.909Z,0.00
2018-09-03T02:21:55.430Z,0.00
2018-09-03T02:22:55.132Z,0.00
2018-09-03T02:23:54.759Z,0.00
2018-09-03T02:24:54.838Z,0.00
2018-09-03T02:25:54.826Z,0.00
2018-09-03T02:26:54.724Z,0.00
2018-09-03T02:27:54.799Z,0.00
2018-09-03T02:28:54.971Z,0.00
2018-09-03T02:29:54.692Z,0.00
2018-09-03T02:30:54.774Z,0.00
2018-09-03T02:31:54.684Z,0.00
2018-09-03T02:32:54.757Z,0.00
2018-09-03T02:33:54.692Z,0.00
2018-09-03T02:34:54.636Z,0.00
2018-09-03T02:35:54.900Z,0.00
2018-09-03T02:36:54.721Z,0.00
2018-09-03T02:37:55.021Z,0.00
2018-09-03T02:38:54.602Z,0.00
2018-09-03T02:39:54.582Z,0.00
2018-09-03T02:40:54.857Z,0.00
2018-09-03T02:41:54.649Z,0.00
2018-09-03T02:42:54.651Z,0.00
2018-09-03T02:43:54.638Z,0.00
2018-09-03T02:44:54.905Z,0.00
2018-09-03T02:45:54.815Z,0.00
2018-09-03T02:46:54.515Z,0.00
2018-09-03T02:47:54.598Z,0.00
2018-09-03T02:48:54.488Z,0.00
2018-09-03T02:49:54.483Z,0.00
2018-09-03T02:50:54.751Z,0.00
2018-09-03T02:51:54.842Z,0.00
2018-09-03T02:52:54.471Z,0.00
2018-09-03T02:53:54.451Z,0.00
2018-09-03T02:54:54.702Z,0.00
2018-09-03T02:55:54.548Z,0.00
2018-09-03T02:56:54.403Z,0.00
2018-09-03T02:57:54.667Z,0.00
2018-09-03T02:58:54.379Z,0.00
2018-09-03T02:59:54.382Z,0.00
2018-09-03T03:00:55.098Z,0.00
2018-09-03T03:01:54.765Z,0.00
2018-09-03T03:02:54.528Z,0.00
2018-09-03T03:03:54.446Z,0.00
2018-09-03T03:04:54.323Z,0.00
2018-09-03T03:05:54.394Z,0.00
2018-09-03T03:06:54.691Z,0.00
2018-09-03T03:07:54.565Z,0.00
2018-09-03T03:08:54.556Z,0.00
2018-09-03T03:09:54.375Z,0.00
2018-09-03T03:10:54.290Z,0.00
2018-09-03T03:11:54.409Z,0.00
2018-09-03T03:12:54.607Z,0.00
2018-09-03T03:13:54.236Z,0.00
2018-09-03T03:14:54.227Z,0.00
2018-09-03T03:15:54.321Z,0.00
2018-09-03T03:16:54.541Z,0.00
2018-09-03T03:17:54.198Z,0.00
2018-09-03T03:18:54.263Z,0.00
2018-09-03T03:19:54.538Z,0.00
2018-09-03T03:20:54.265Z,0.00
2018-09-03T03:21:54.159Z,0.00
2018-09-03T03:22:54.388Z,0.00
2018-09-03T03:23:54.250Z,0.00
2018-09-03T03:24:54.229Z,0.00
2018-09-03T03:25:54.841Z,0.00
2018-09-03T03:26:54.222Z,0.00
2018-09-03T03:27:54.434Z,0.00
2018-09-03T03:28:54.463Z,0.00
2018-09-03T03:29:54.061Z,0.00
2018-09-03T03:30:54.171Z,0.00
2018-09-03T03:31:54.113Z,0.00
2018-09-03T03:32:54.034Z,0.00
2018-09-03T03:33:54.128Z,0.00
2018-09-03T03:34:54.540Z,0.00
2018-09-03T03:35:54.019Z,0.00
2018-09-03T03:36:54.109Z,0.00
2018-09-03T03:37:54.455Z,0.00
2018-09-03T03:38:54.358Z,0.00
2018-09-03T03:39:54.053Z,0.00
2018-09-03T03:40:53.961Z,0.00
2018-09-03T03:41:53.959Z,0.00
2018-09-03T03:42:53.941Z,0.00
2018-09-03T03:43:53.927Z,0.00
2018-09-03T03:44:54.012Z,0.00
2018-09-03T03:45:53.934Z,0.00
2018-09-03T03:46:53.993Z,0.00
2018-09-03T03:47:53.892Z,0.00
2018-09-03T03:48:53.966Z,0.00
2018-09-03T03:49:54.109Z,0.00
2018-09-03T03:50:54.209Z,0.00
2018-09-03T03:51:55.452Z,0.00
2018-09-03T03:52:53.924Z,0.00
2018-09-03T03:53:54.075Z,0.00
2018-09-03T03:54:53.919Z,0.00
2018-09-03T03:55:54.063Z,0.00
2018-09-03T03:56:53.914Z,0.00
2018-09-03T03:57:53.876Z,0.00
2018-09-03T03:58:53.865Z,0.00
2018-09-03T03:59:53.818Z,0.00
2018-09-03T04:00:53.724Z,0.00
2018-09-03T04:01:54.034Z,0.00
2018-09-03T04:02:53.722Z,0.00
2018-09-03T04:03:53.817Z,0.00
2018-09-03T04:04:54.097Z,0.00
2018-09-03T04:05:53.672Z,0.00
2018-09-03T04:06:53.805Z,0.00
2018-09-03T04:07:53.652Z,0.00
2018-09-03T04:08:53.928Z,0.00
2018-09-03T04:09:53.631Z,0.00
2018-09-03T04:10:53.701Z,0.00
2018-09-03T04:11:53.655Z,0.00
2018-09-03T04:12:54.259Z,0.00
2018-09-03T04:13:53.720Z,0.00
2018-09-03T04:14:53.590Z,0.00
2018-09-03T04:15:53.695Z,0.00
2018-09-03T04:16:53.577Z,0.00
2018-09-03T04:17:53.698Z,0.00
2018-09-03T04:18:53.806Z,0.00
2018-09-03T04:19:53.520Z,0.00
2018-09-03T04:20:53.910Z,0.00
2018-09-03T04:21:53.641Z,0.00
2018-09-03T04:22:53.906Z,0.00
2018-09-03T04:23:53.482Z,0.00
2018-09-03T04:24:53.597Z,0.00
2018-09-03T04:25:53.581Z,0.00
2018-09-03T04:26:53.463Z,0.00
2018-09-03T04:27:53.445Z,0.00
2018-09-03T04:28:53.551Z,0.00
2018-09-03T04:29:53.692Z,0.00
2018-09-03T04:30:53.696Z,0.00
2018-09-03T04:31:54.041Z,0.00
2018-09-03T04:32:53.518Z,0.00
2018-09-03T04:33:53.436Z,0.00
2018-09-03T04:34:53.373Z,0.00
2018-09-03T04:35:53.628Z,0.00
2018-09-03T04:36:53.379Z,0.00
2018-09-03T04:37:53.707Z,0.00
2018-09-03T04:38:53.468Z,0.00
2018-09-03T04:39:53.327Z,0.00
2018-09-03T04:40:53.360Z,4.00
2018-09-03T04:41:53.663Z,4.00
2018-09-03T04:42:53.392Z,4.00
2018-09-03T04:43:53.306Z,4.00
2018-09-03T04:44:53.325Z,4.00
2018-09-03T04:45:53.261Z,4.00
2018-09-03T04:46:53.247Z,4.00
2018-09-03T04:47:53.307Z,4.00
2018-09-03T04:48:53.512Z,4.00
2018-09-03T04:49:53.216Z,4.00
2018-09-03T04:50:53.469Z,4.00
2018-09-03T04:51:53.296Z,4.00
2018-09-03T04:52:53.289Z,4.00
2018-09-03T04:53:53.309Z,4.00
2018-09-03T04:54:53.171Z,0.00
2018-09-03T04:55:53.450Z,4.00
2018-09-03T04:56:53.482Z,4.00
2018-09-03T04:57:53.148Z,4.00
2018-09-03T04:58:52.129Z,4.00
2018-09-03T04:59:53.104Z,8.00
2018-09-03T05:00:53.090Z,4.00
2018-09-03T05:01:53.343Z,4.00
2018-09-03T05:02:53.121Z,8.00
2018-09-03T05:03:53.180Z,8.00
2018-09-03T05:04:53.050Z,4.00
2018-09-03T05:05:53.052Z,8.00
2018-09-03T05:06:53.175Z,8.00
2018-09-03T05:07:53.026Z,8.00
2018-09-03T05:08:53.167Z,8.00
2018-09-03T05:09:53.393Z,8.00
2018-09-03T05:10:53.093Z,12.00
2018-09-03T05:11:53.071Z,12.00
2018-09-03T05:12:52.988Z,12.00
2018-09-03T05:13:52.066Z,12.00
2018-09-03T05:14:52.979Z,16.00
2018-09-03T05:15:52.939Z,16.00
2018-09-03T05:16:52.935Z,16.00
2018-09-03T05:17:53.469Z,16.00
2018-09-03T05:18:53.973Z,16.00
2018-09-03T05:19:53.066Z,16.00
2018-09-03T05:20:53.400Z,16.00
2018-09-03T05:21:52.885Z,20.00
2018-09-03T05:22:52.979Z,20.00
2018-09-03T05:23:52.984Z,16.00
2018-09-03T05:24:53.171Z,16.00
2018-09-03T05:25:52.834Z,16.00
2018-09-03T05:26:53.256Z,16.00
2018-09-03T05:27:52.952Z,20.00
2018-09-03T05:28:52.797Z,20.00
2018-09-03T05:29:52.797Z,20.00
2018-09-03T05:30:52.790Z,20.00
2018-09-03T05:31:55.130Z,24.00
2018-09-03T05:32:52.781Z,24.00
2018-09-03T05:33:52.780Z,20.00
2018-09-03T05:34:52.996Z,24.00
2018-09-03T05:35:52.725Z,28.00
2018-09-03T05:36:53.090Z,28.00
2018-09-03T05:37:52.707Z,32.00
2018-09-03T05:38:52.729Z,32.00
2018-09-03T05:39:53.045Z,36.00
2018-09-03T05:40:52.843Z,32.00
2018-09-03T05:41:52.745Z,36.00
2018-09-03T05:42:52.806Z,36.00
2018-09-03T05:43:55.846Z,36.00
2018-09-03T05:44:52.649Z,28.00
2018-09-03T05:45:52.754Z,28.00
2018-09-03T05:46:52.624Z,28.00
2018-09-03T05:47:52.891Z,32.00
2018-09-03T05:48:52.623Z,28.00
2018-09-03T05:49:52.696Z,28.00
2018-09-03T05:50:52.744Z,28.00
2018-09-03T05:51:52.571Z,32.00
2018-09-03T05:52:53.249Z,32.00
2018-09-03T05:53:52.928Z,32.00
2018-09-03T05:54:52.534Z,40.00
2018-09-03T05:55:52.605Z,44.00
2018-09-03T05:56:52.703Z,44.00
2018-09-03T05:57:52.885Z,52.00
2018-09-03T05:58:52.667Z,52.00
2018-09-03T05:59:52.790Z,60.00
2018-09-03T06:00:52.477Z,60.00
2018-09-03T06:01:52.524Z,64.00
2018-09-03T06:02:52.443Z,64.00
2018-09-03T06:03:52.772Z,64.00
2018-09-03T06:04:52.753Z,68.00
2018-09-03T06:05:52.807Z,72.00
2018-09-03T06:06:52.822Z,80.00
2018-09-03T06:07:52.657Z,80.00
2018-09-03T06:08:52.510Z,80.00
2018-09-03T06:09:52.764Z,84.00
2018-09-03T06:10:52.343Z,80.00
2018-09-03T06:11:52.451Z,72.00
2018-09-03T06:12:52.428Z,68.00
2018-09-03T06:13:52.730Z,68.00
2018-09-03T06:14:52.458Z,68.00
2018-09-03T06:15:52.425Z,72.00
2018-09-03T06:16:52.619Z,76.00
2018-09-03T06:17:52.489Z,80.00
2018-09-03T06:18:52.403Z,80.00
2018-09-03T06:19:52.609Z,84.00
2018-09-03T06:20:52.377Z,88.00
2018-09-03T06:21:53.102Z,88.00
2018-09-03T06:22:52.235Z,96.00
2018-09-03T06:23:52.281Z,96.00
2018-09-03T06:24:52.331Z,104.00
2018-09-03T06:25:52.633Z,112.00
2018-09-03T06:26:52.620Z,116.00
2018-09-03T06:27:52.167Z,116.00
2018-09-03T06:28:52.561Z,116.00
2018-09-03T06:29:52.233Z,116.00
2018-09-03T06:30:52.165Z,116.00
2018-09-03T06:31:52.242Z,112.00
2018-09-03T06:32:52.546Z,108.00
2018-09-03T06:33:53.039Z,108.00
2018-09-03T06:34:52.103Z,108.00
2018-09-03T06:35:52.254Z,108.00
2018-09-03T06:36:52.454Z,108.00
2018-09-03T06:37:52.342Z,108.00
2018-09-03T06:38:52.185Z,108.00
2018-09-03T06:39:52.224Z,108.00
2018-09-03T06:40:52.031Z,104.00
2018-09-03T06:41:52.153Z,104.00
2018-09-03T06:42:52.034Z,100.00
2018-09-03T06:43:51.994Z,104.00
2018-09-03T06:44:52.165Z,108.00
2018-09-03T06:45:52.474Z,116.00
2018-09-03T06:46:52.053Z,116.00
2018-09-03T06:47:51.989Z,124.00
2018-09-03T06:48:51.958Z,124.00
2018-09-03T06:49:52.376Z,128.00
2018-09-03T06:50:52.083Z,128.00
2018-09-03T06:51:52.184Z,128.00
2018-09-03T06:52:51.946Z,132.00
2018-09-03T06:53:51.894Z,128.00
2018-09-03T06:54:51.914Z,124.00
2018-09-03T06:55:52.280Z,124.00
2018-09-03T06:56:51.893Z,120.00
2018-09-03T06:57:52.591Z,120.00
2018-09-03T06:58:51.968Z,120.00
2018-09-03T06:59:51.987Z,116.00
2018-09-03T07:00:52.117Z,120.00
2018-09-03T07:01:51.960Z,160.00
2018-09-03T07:02:51.810Z,168.00
2018-09-03T07:03:52.061Z,168.00
2018-09-03T07:04:51.800Z,172.00
2018-09-03T07:05:51.799Z,180.00
2018-09-03T07:06:51.805Z,192.00
2018-09-03T07:07:51.841Z,200.00
2018-09-03T07:08:51.750Z,204.00
2018-09-03T07:09:52.116Z,204.00
2018-09-03T07:10:51.703Z,204.00
2018-09-03T07:11:51.836Z,204.00
2018-09-03T07:12:51.724Z,208.00
2018-09-03T07:13:51.683Z,196.00
2018-09-03T07:14:51.708Z,184.00
2018-09-03T07:15:51.743Z,172.00
2018-09-03T07:16:51.920Z,168.00
2018-09-03T07:17:51.746Z,168.00
2018-09-03T07:18:51.743Z,172.00
2018-09-03T07:19:51.907Z,180.00
2018-09-03T07:20:51.662Z,184.00
2018-09-03T07:21:51.610Z,184.00
2018-09-03T07:22:51.599Z,184.00
2018-09-03T07:23:51.566Z,188.00
2018-09-03T07:24:52.340Z,196.00
2018-09-03T07:25:52.458Z,200.00
2018-09-03T07:26:51.815Z,200.00
2018-09-03T07:27:51.801Z,204.00
2018-09-03T07:28:51.709Z,204.00
2018-09-03T07:29:51.530Z,200.00
2018-09-03T07:30:51.580Z,196.00
2018-09-03T07:31:51.890Z,148.00
2018-09-03T07:32:51.472Z,132.00
2018-09-03T07:33:51.499Z,120.00
2018-09-03T07:34:52.427Z,148.00
2018-09-03T07:35:51.482Z,140.00
2018-09-03T07:36:51.555Z,140.00
2018-09-03T07:37:51.708Z,144.00
2018-09-03T07:38:51.606Z,136.00
2018-09-03T07:39:51.504Z,132.00
2018-09-03T07:40:51.494Z,132.00
2018-09-03T07:41:50.391Z,132.00
2018-09-03T07:42:51.380Z,144.00
2018-09-03T07:43:51.719Z,152.00
2018-09-03T07:44:51.706Z,164.00
2018-09-03T07:45:54.265Z,168.00
2018-09-03T07:46:51.454Z,164.00
2018-09-03T07:47:51.531Z,168.00
2018-09-03T07:48:51.565Z,172.00
2018-09-03T07:49:51.438Z,180.00
2018-09-03T07:50:51.300Z,192.00
2018-09-03T07:51:51.562Z,212.00
2018-09-03T07:52:51.379Z,232.00
2018-09-03T07:53:51.404Z,240.00
2018-09-03T07:54:51.259Z,244.00
2018-09-03T07:55:51.261Z,244.00
2018-09-03T07:56:51.266Z,236.00
2018-09-03T07:57:51.232Z,224.00
2018-09-03T07:58:51.345Z,216.00
2018-09-03T07:59:52.620Z,208.00
2018-09-03T08:00:51.272Z,200.00
2018-09-03T08:01:51.327Z,196.00
2018-09-03T08:02:51.539Z,200.00
2018-09-03T08:03:51.247Z,208.00
2018-09-03T08:04:51.275Z,220.00
2018-09-03T08:05:51.527Z,228.00
2018-09-03T08:06:51.123Z,240.00
2018-09-03T08:07:51.317Z,252.00
2018-09-03T08:08:52.096Z,256.00
2018-09-03T08:09:51.103Z,264.00
2018-09-03T08:10:51.117Z,284.00
2018-09-03T08:11:50.364Z,316.00
2018-09-03T08:12:50.120Z,344.00
2018-09-03T08:13:51.088Z,352.00
2018-09-03T08:14:51.047Z,356.00
2018-09-03T08:15:53.098Z,340.00
2018-09-03T08:16:51.299Z,300.00
2018-09-03T08:17:51.269Z,280.00
2018-09-03T08:18:51.159Z,292.00
2018-09-03T08:19:51.109Z,292.00
2018-09-03T08:20:51.263Z,292.00
2018-09-03T08:21:51.125Z,272.00
2018-09-03T08:22:51.320Z,248.00
2018-09-03T08:23:51.047Z,232.00
2018-09-03T08:24:51.343Z,232.00
2018-09-03T08:25:51.191Z,224.00
2018-09-03T08:26:50.927Z,228.00
2018-09-03T08:27:50.906Z,228.00
2018-09-03T08:28:50.914Z,224.00
2018-09-03T08:29:51.466Z,216.00
2018-09-03T08:30:50.884Z,196.00
2018-09-03T08:31:50.970Z,180.00
2018-09-03T08:38:24.298Z,220.00
2018-09-03T08:39:26.078Z,248.00
2018-09-03T08:40:25.045Z,276.00
2018-09-03T08:41:24.068Z,284.00
2018-09-03T08:42:24.922Z,300.00
2018-09-03T08:43:24.936Z,288.00
2018-09-03T08:44:25.085Z,300.00
2018-09-03T08:45:25.306Z,308.00
2018-09-03T08:46:25.474Z,300.00
2018-09-03T08:47:30.471Z,284.00
2018-09-03T08:48:24.939Z,268.00
2018-09-03T08:49:25.135Z,260.00
2018-09-03T08:50:24.917Z,268.00
2018-09-03T08:51:24.843Z,276.00
2018-09-03T08:52:25.085Z,272.00
2018-09-03T08:53:24.979Z,276.00
2018-09-03T08:54:24.811Z,280.00
2018-09-03T08:55:24.938Z,280.00
2018-09-03T08:56:25.122Z,272.00
2018-09-03T08:57:24.774Z,256.00
2018-09-03T08:58:23.791Z,256.00
2018-09-03T08:59:24.920Z,252.00
2018-09-03T09:00:24.743Z,228.00
2018-09-03T09:01:24.860Z,204.00
2018-09-03T09:02:24.835Z,188.00
2018-09-03T09:03:27.650Z,184.00
2018-09-03T09:04:24.848Z,184.00
2018-09-03T09:05:25.229Z,184.00
2018-09-03T09:06:24.718Z,176.00
2018-09-03T09:07:24.813Z,160.00
2018-09-03T09:08:24.927Z,144.00
2018-09-03T09:09:26.513Z,128.00
2018-09-03T09:10:24.647Z,120.00
2018-09-03T09:11:24.629Z,112.00
2018-09-03T09:12:24.697Z,116.00
2018-09-03T09:13:24.612Z,116.00
2018-09-03T09:14:24.614Z,116.00
2018-09-03T09:15:24.854Z,120.00
2018-09-03T09:16:24.738Z,132.00
2018-09-03T09:17:24.719Z,140.00
2018-09-03T09:18:24.560Z,148.00
2018-09-03T09:19:24.718Z,160.00
2018-09-03T09:20:24.797Z,180.00
2018-09-03T09:21:24.949Z,192.00
2018-09-03T09:22:24.516Z,192.00
2018-09-03T09:23:24.482Z,204.00
2018-09-03T09:24:24.495Z,224.00
2018-09-03T09:25:24.484Z,248.00
2018-09-03T09:26:24.455Z,300.00
2018-09-03T09:27:24.550Z,336.00
2018-09-03T09:28:24.852Z,352.00
2018-09-03T09:29:24.444Z,352.00
2018-09-03T09:30:24.428Z,348.00
2018-09-03T09:31:25.038Z,324.00
2018-09-03T09:32:24.388Z,280.00
2018-09-03T09:33:24.464Z,256.00
2018-09-03T09:34:30.867Z,260.00
2018-09-03T09:35:24.488Z,272.00
2018-09-03T09:36:24.365Z,304.00
2018-09-03T09:37:24.792Z,320.00
2018-09-03T09:38:24.824Z,332.00
2018-09-03T09:39:24.720Z,324.00
2018-09-03T09:40:24.662Z,320.00
2018-09-03T09:41:23.391Z,312.00
2018-09-03T09:42:24.325Z,340.00
2018-09-03T09:43:26.443Z,368.00
2018-09-03T09:44:24.524Z,392.00
2018-09-03T09:45:24.261Z,404.00
2018-09-03T09:46:24.251Z,408.00
2018-09-03T09:47:24.572Z,404.00
2018-09-03T09:48:24.213Z,408.00
2018-09-03T09:49:24.250Z,412.00
2018-09-03T09:50:24.223Z,400.00
2018-09-03T09:51:24.476Z,420.00
2018-09-03T09:52:24.550Z,452.00
2018-09-03T09:53:24.167Z,456.00
2018-09-03T09:54:24.171Z,468.00
2018-09-03T09:55:24.325Z,468.00
2018-09-03T09:56:24.129Z,468.00
2018-09-03T09:57:24.146Z,468.00
2018-09-03T09:58:24.103Z,468.00
2018-09-03T09:59:24.384Z,440.00
2018-09-03T10:00:24.239Z,424.00
2018-09-03T10:01:24.080Z,376.00
2018-09-03T10:02:24.139Z,340.00
2018-09-03T10:03:24.187Z,320.00
2018-09-03T10:04:23.111Z,288.00
2018-09-03T10:05:24.193Z,252.00
2018-09-03T10:06:24.039Z,244.00
2018-09-03T10:07:25.236Z,240.00
2018-09-03T10:08:24.019Z,264.00
2018-09-03T10:09:24.287Z,272.00
2018-09-03T10:10:23.990Z,320.00
2018-09-03T10:11:24.095Z,364.00
2018-09-03T10:12:23.983Z,392.00
2018-09-03T10:13:23.972Z,380.00
2018-09-03T10:14:24.204Z,332.00
2018-09-03T10:15:24.545Z,324.00
2018-09-03T10:16:24.288Z,328.00
2018-09-03T10:17:24.045Z,316.00
2018-09-03T10:18:24.046Z,304.00
2018-09-03T10:19:23.887Z,312.00
2018-09-03T10:20:24.048Z,296.00
2018-09-03T10:21:24.150Z,268.00
2018-09-03T10:22:24.116Z,280.00
2018-09-03T10:23:23.940Z,316.00
2018-09-03T10:24:23.894Z,356.00
2018-09-03T10:25:23.894Z,404.00
2018-09-03T10:26:24.135Z,460.00
2018-09-03T10:27:24.234Z,448.00
2018-09-03T10:28:23.796Z,432.00
2018-09-03T10:29:25.107Z,384.00
2018-09-03T10:30:23.927Z,336.00
2018-09-03T10:31:23.876Z,288.00
2018-09-03T10:32:24.014Z,260.00
2018-09-03T10:33:23.770Z,236.00
2018-09-03T10:34:24.073Z,224.00
2018-09-03T10:35:23.751Z,224.00
2018-09-03T10:36:23.995Z,232.00
2018-09-03T10:37:24.940Z,264.00
2018-09-03T10:38:23.689Z,288.00
2018-09-03T10:39:24.125Z,288.00
2018-09-03T10:40:23.685Z,296.00
2018-09-03T10:41:23.655Z,304.00
2018-09-03T10:42:23.628Z,320.00
2018-09-03T10:43:23.624Z,340.00
2018-09-03T10:44:23.646Z,336.00
2018-09-03T10:45:23.873Z,332.00
2018-09-03T10:46:23.596Z,328.00
2018-09-03T10:47:23.637Z,328.00
2018-09-03T10:48:23.601Z,328.00
2018-09-03T10:49:23.849Z,328.00
2018-09-03T10:50:23.583Z,324.00
2018-09-03T10:51:23.942Z,336.00
2018-09-03T10:52:23.800Z,340.00
2018-09-03T10:53:23.575Z,372.00
2018-09-03T10:54:24.374Z,388.00
2018-09-03T10:55:23.815Z,392.00
2018-09-03T10:56:23.511Z,392.00
2018-09-03T10:57:23.509Z,400.00
2018-09-03T10:58:23.480Z,404.00
2018-09-03T10:59:23.515Z,388.00
2018-09-03T11:00:23.493Z,352.00
2018-09-03T11:01:23.505Z,332.00
2018-09-03T11:02:23.425Z,320.00
2018-09-03T11:03:23.439Z,320.00
2018-09-03T11:04:23.672Z,340.00
2018-09-03T11:05:23.455Z,388.00
2018-09-03T11:06:23.412Z,440.00
2018-09-03T11:07:23.417Z,452.00
2018-09-03T11:08:23.367Z,432.00
2018-09-03T11:09:23.337Z,408.00
2018-09-03T11:10:23.608Z,400.00
2018-09-03T11:11:23.358Z,396.00
2018-09-03T11:12:23.327Z,396.00
2018-09-03T11:13:23.307Z,400.00
2018-09-03T11:14:24.342Z,420.00
2018-09-03T11:15:23.403Z,440.00
2018-09-03T11:16:23.300Z,464.00
2018-09-03T11:17:23.462Z,488.00
2018-09-03T11:18:23.546Z,488.00
2018-09-03T11:19:23.249Z,480.00
2018-09-03T11:20:23.253Z,464.00
2018-09-03T11:21:24.760Z,444.00
2018-09-03T11:22:23.418Z,428.00
2018-09-03T11:23:23.223Z,428.00
2018-09-03T11:24:23.609Z,444.00
2018-09-03T11:25:23.171Z,464.00
2018-09-03T11:26:23.194Z,476.00
2018-09-03T11:27:23.162Z,484.00
2018-09-03T11:28:23.136Z,492.00
2018-09-03T11:29:23.654Z,504.00
2018-09-03T11:30:23.408Z,508.00
2018-09-03T11:31:23.376Z,496.00
2018-09-03T11:32:25.369Z,496.00
2018-09-03T11:33:23.081Z,492.00
2018-09-03T11:34:23.068Z,488.00
2018-09-03T11:35:23.213Z,484.00
2018-09-03T11:36:23.198Z,488.00
2018-09-03T11:37:23.184Z,484.00
2018-09-03T11:38:23.309Z,492.00
2018-09-03T11:39:23.448Z,492.00
2018-09-03T11:40:23.048Z,496.00
2018-09-03T11:41:23.080Z,500.00
2018-09-03T11:42:23.164Z,504.00
2018-09-03T11:43:23.039Z,508.00
2018-09-03T11:44:23.218Z,516.00
2018-09-03T11:45:22.970Z,528.00
2018-09-03T11:46:23.013Z,544.00
2018-09-03T11:47:23.083Z,564.00
2018-09-03T11:48:23.083Z,588.00
2018-09-03T11:49:23.072Z,596.00
2018-09-03T11:50:22.945Z,612.00
2018-09-03T11:51:23.092Z,600.00
2018-09-03T11:52:22.936Z,584.00
2018-09-03T11:53:22.973Z,564.00
2018-09-03T11:54:22.873Z,556.00
2018-09-03T11:55:22.972Z,548.00
2018-09-03T11:56:22.850Z,564.00
2018-09-03T11:57:22.956Z,584.00
2018-09-03T11:58:23.326Z,568.00
2018-09-03T11:59:23.173Z,572.00
2018-09-03T12:00:22.896Z,576.00
2018-09-03T12:01:23.209Z,568.00
2018-09-03T12:02:23.047Z,556.00
2018-09-03T12:03:22.899Z,556.00
2018-09-03T12:04:22.749Z,552.00
2018-09-03T12:05:22.735Z,552.00
2018-09-03T12:06:22.866Z,556.00
2018-09-03T12:07:22.862Z,560.00
2018-09-03T12:08:23.101Z,564.00
2018-09-03T12:09:22.965Z,560.00
2018-09-03T12:10:23.387Z,552.00
2018-09-03T12:11:22.681Z,544.00
2018-09-03T12:12:23.110Z,516.00
2018-09-03T12:13:22.796Z,484.00
2018-09-03T12:14:22.654Z,428.00
2018-09-03T12:15:22.627Z,408.00
2018-09-03T12:16:23.019Z,400.00
2018-09-03T12:17:24.571Z,388.00
2018-09-03T12:18:22.622Z,384.00
2018-09-03T12:19:22.738Z,380.00
2018-09-03T12:20:22.626Z,384.00
2018-09-03T12:21:22.724Z,376.00
2018-09-03T12:22:22.675Z,368.00
2018-09-03T12:23:22.820Z,360.00
2018-09-03T12:24:22.911Z,340.00
2018-09-03T12:25:22.635Z,332.00
2018-09-03T12:26:22.562Z,324.00
2018-09-03T12:27:22.507Z,316.00
2018-09-03T12:28:22.666Z,316.00
2018-09-03T12:29:22.798Z,336.00
2018-09-03T12:30:22.501Z,360.00
2018-09-03T12:31:24.694Z,384.00
2018-09-03T12:32:22.722Z,392.00
2018-09-03T12:33:22.474Z,396.00
2018-09-03T12:34:22.435Z,384.00
2018-09-03T12:35:22.424Z,372.00
2018-09-03T12:36:23.018Z,368.00
2018-09-03T12:37:21.562Z,372.00
2018-09-03T12:38:22.650Z,372.00
2018-09-03T12:39:21.656Z,360.00
2018-09-03T12:40:21.375Z,344.00
2018-09-03T12:41:22.401Z,332.00
2018-09-03T12:42:22.374Z,316.00
2018-09-03T12:43:22.182Z,292.00
2018-09-03T12:44:22.608Z,272.00
2018-09-03T12:45:22.311Z,260.00
2018-09-03T12:46:22.356Z,248.00
2018-09-03T12:47:22.307Z,236.00
2018-09-03T12:48:23.296Z,232.00
2018-09-03T12:49:22.660Z,236.00
2018-09-03T12:50:22.255Z,256.00
2018-09-03T12:51:22.319Z,288.00
2018-09-03T12:52:22.238Z,316.00
2018-09-03T12:53:22.791Z,324.00
2018-09-03T12:54:23.003Z,336.00
2018-09-03T12:55:22.473Z,368.00
2018-09-03T12:56:22.251Z,388.00